createdAt,value
2023-04-18T00:00:59.156Z,21.97
2023-04-18T00:01:59.249Z,21.99
2023-04-18T00:03:00.900Z,21.99
2023-04-18T00:03:59.499Z,21.96
2023-04-18T00:04:59.394Z,21.97
2023-04-18T00:05:59.348Z,21.96
2023-04-18T00:06:59.299Z,21.96
2023-04-18T00:07:59.313Z,21.96
2023-04-18T00:08:59.374Z,21.96
2023-04-18T00:09:59.346Z,21.96
2023-04-18T00:10:59.358Z,21.93
2023-04-18T00:11:59.362Z,21.94
2023-04-18T00:12:59.378Z,21.96
2023-04-18T00:13:59.399Z,21.96
2023-04-18T00:14:59.401Z,21.96
2023-04-18T00:15:59.420Z,21.94
2023-04-18T00:16:59.477Z,21.96
2023-04-18T00:17:59.498Z,21.94
2023-04-18T00:18:59.461Z,21.96
2023-04-18T00:19:59.473Z,21.94
2023-04-18T00:20:59.486Z,21.96
2023-04-18T00:21:59.494Z,21.96
2023-04-18T00:22:59.504Z,21.93
2023-04-18T00:23:59.600Z,21.96
2023-04-18T00:24:59.726Z,21.97
2023-04-18T00:25:59.763Z,21.96
2023-04-18T00:26:59.831Z,21.94
2023-04-18T00:28:00.887Z,21.93
2023-04-18T00:29:00.002Z,21.94
2023-04-18T00:30:00.140Z,21.94
2023-04-18T00:31:00.170Z,21.96
2023-04-18T00:32:00.241Z,21.94
2023-04-18T00:33:00.419Z,21.96
2023-04-18T00:34:00.398Z,21.94
2023-04-18T00:35:00.903Z,21.96
2023-04-18T00:36:00.572Z,21.96
2023-04-18T00:37:00.639Z,21.93
2023-04-18T00:38:00.707Z,21.94
2023-04-18T00:39:00.808Z,21.93
2023-04-18T00:40:00.886Z,21.96
2023-04-18T00:41:00.957Z,21.93
2023-04-18T00:42:01.034Z,21.96
2023-04-18T00:43:01.119Z,21.93
2023-04-18T00:44:01.200Z,21.93
2023-04-18T00:45:01.285Z,21.94
2023-04-18T00:46:01.425Z,21.93
2023-04-18T00:47:01.440Z,21.96
2023-04-18T00:48:01.594Z,21.96
2023-04-18T00:49:01.908Z,21.94
2023-04-18T00:50:01.712Z,21.94
2023-04-18T00:51:01.756Z,21.94
2023-04-18T00:52:01.852Z,21.94
2023-04-18T00:53:01.918Z,21.92
2023-04-18T00:54:02.066Z,21.94
2023-04-18T00:55:02.093Z,21.92
2023-04-18T00:56:02.131Z,21.93
2023-04-18T00:57:02.280Z,21.94
2023-04-18T00:58:02.284Z,21.96
2023-04-18T00:59:02.338Z,21.97
2023-04-18T01:00:02.504Z,21.93
2023-04-18T01:01:02.472Z,21.94
2023-04-18T01:02:02.640Z,21.93
2023-04-18T01:03:02.920Z,21.92
2023-04-18T01:04:02.761Z,21.93
2023-04-18T01:05:02.744Z,21.94
2023-04-18T01:06:02.811Z,21.94
2023-04-18T01:07:02.873Z,21.92
2023-04-18T01:08:02.932Z,21.94
2023-04-18T01:09:03.087Z,21.92
2023-04-18T01:10:03.103Z,21.93
2023-04-18T01:11:03.184Z,21.94
2023-04-18T01:12:03.247Z,21.93
2023-04-18T01:13:03.321Z,21.93
2023-04-18T01:14:04.414Z,21.94
2023-04-18T01:15:03.493Z,21.94
2023-04-18T01:16:03.622Z,21.96
2023-04-18T01:17:03.628Z,21.92
2023-04-18T01:18:03.714Z,21.92
2023-04-18T01:19:03.769Z,21.93
2023-04-18T01:20:03.854Z,21.94
2023-04-18T01:21:03.918Z,21.93
2023-04-18T01:22:04.006Z,21.93
2023-04-18T01:23:04.080Z,21.92
2023-04-18T01:24:04.184Z,21.92
2023-04-18T01:25:04.245Z,21.94
2023-04-18T01:26:04.398Z,21.92
2023-04-18T01:27:05.399Z,21.92
2023-04-18T01:28:04.528Z,21.92
2023-04-18T01:29:04.589Z,21.96
2023-04-18T01:30:04.707Z,21.96
2023-04-18T01:31:04.802Z,21.93
2023-04-18T01:32:04.852Z,21.93
2023-04-18T01:33:04.935Z,21.93
2023-04-18T01:34:05.016Z,21.96
2023-04-18T01:35:05.415Z,21.94
2023-04-18T01:36:05.184Z,22.00
2023-04-18T01:37:05.258Z,21.96
2023-04-18T01:38:05.348Z,21.97
2023-04-18T01:39:05.466Z,21.96
2023-04-18T01:40:05.517Z,22.00
2023-04-18T01:41:05.587Z,21.99
2023-04-18T01:42:05.675Z,21.97
2023-04-18T01:43:05.753Z,22.00
2023-04-18T01:44:05.840Z,21.99
2023-04-18T01:45:05.929Z,22.00
2023-04-18T01:46:06.018Z,22.00
2023-04-18T01:47:06.090Z,22.00
2023-04-18T01:48:06.171Z,21.99
2023-04-18T01:49:06.247Z,22.01
2023-04-18T01:50:06.334Z,22.01
2023-04-18T01:51:06.420Z,22.01
2023-04-18T01:52:06.491Z,22.04
2023-04-18T01:53:06.577Z,22.01
2023-04-18T01:54:06.666Z,22.03
2023-04-18T01:55:06.932Z,22.00
2023-04-18T01:56:06.808Z,22.03
2023-04-18T01:57:06.929Z,22.04
2023-04-18T01:58:06.968Z,22.04
2023-04-18T01:59:07.045Z,22.04
2023-04-18T02:00:07.151Z,22.03
2023-04-18T02:01:07.257Z,22.04
2023-04-18T02:02:07.422Z,22.05
2023-04-18T02:03:07.556Z,22.04
2023-04-18T02:04:07.441Z,22.04
2023-04-18T02:05:07.507Z,22.04
2023-04-18T02:06:07.606Z,22.07
2023-04-18T02:07:08.412Z,22.05
2023-04-18T02:08:07.725Z,22.05
2023-04-18T02:09:07.792Z,22.07
2023-04-18T02:10:07.890Z,22.04
2023-04-18T02:11:07.954Z,22.04
2023-04-18T02:12:08.045Z,22.07
2023-04-18T02:13:08.101Z,22.07
2023-04-18T02:14:08.179Z,22.08
2023-04-18T02:15:08.433Z,22.05
2023-04-18T02:16:08.436Z,22.07
2023-04-18T02:17:08.408Z,22.07
2023-04-18T02:18:08.526Z,22.08
2023-04-18T02:19:08.586Z,22.07
2023-04-18T02:20:08.639Z,22.05
2023-04-18T02:21:08.696Z,22.07
2023-04-18T02:22:08.787Z,22.07
2023-04-18T02:23:08.906Z,22.08
2023-04-18T02:24:08.931Z,22.08
2023-04-18T02:25:08.998Z,22.07
2023-04-18T02:26:09.079Z,22.07
2023-04-18T02:27:09.155Z,22.07
2023-04-18T02:28:09.235Z,22.08
2023-04-18T02:29:09.306Z,22.10
2023-04-18T02:30:09.391Z,22.10
2023-04-18T02:31:09.933Z,22.10
2023-04-18T02:32:09.631Z,22.08
2023-04-18T02:33:09.602Z,22.08
2023-04-18T02:34:09.674Z,22.08
2023-04-18T02:35:09.751Z,22.08
2023-04-18T02:36:09.801Z,22.08
2023-04-18T02:37:09.879Z,22.10
2023-04-18T02:38:09.951Z,22.08
2023-04-18T02:39:10.025Z,22.10
2023-04-18T02:40:10.159Z,22.10
2023-04-18T02:41:10.174Z,22.10
2023-04-18T02:42:10.235Z,22.10
2023-04-18T02:43:10.315Z,22.11
2023-04-18T02:44:10.382Z,22.11
2023-04-18T02:45:10.456Z,22.11
2023-04-18T02:46:10.557Z,22.11
2023-04-18T02:47:10.604Z,22.13
2023-04-18T02:48:10.698Z,22.10
2023-04-18T02:49:10.818Z,22.13
2023-04-18T02:50:10.827Z,22.13
2023-04-18T02:51:10.884Z,22.11
2023-04-18T02:52:10.957Z,22.11
2023-04-18T02:53:11.029Z,22.10
2023-04-18T02:54:11.161Z,22.13
2023-04-18T02:55:11.174Z,22.13
2023-04-18T02:56:11.246Z,22.13
2023-04-18T02:57:11.316Z,22.10
2023-04-18T02:58:11.397Z,22.11
2023-04-18T02:59:12.436Z,22.13
2023-04-18T03:00:11.975Z,22.11
2023-04-18T03:01:11.667Z,22.14
2023-04-18T03:02:11.644Z,22.13
2023-04-18T03:03:11.748Z,22.14
2023-04-18T03:04:12.164Z,22.14
2023-04-18T03:05:11.945Z,22.13
2023-04-18T03:06:11.906Z,22.13
2023-04-18T03:07:12.065Z,22.14
2023-04-18T03:08:12.048Z,22.11
2023-04-18T03:09:12.104Z,22.14
2023-04-18T03:10:12.189Z,22.11
2023-04-18T03:11:12.252Z,22.14
2023-04-18T03:12:12.329Z,22.14
2023-04-18T03:13:12.388Z,22.15
2023-04-18T03:14:12.654Z,22.14
2023-04-18T03:15:12.522Z,22.14
2023-04-18T03:16:12.666Z,22.14
2023-04-18T03:17:12.638Z,22.14
2023-04-18T03:18:12.746Z,22.15
2023-04-18T03:19:12.797Z,22.13
2023-04-18T03:20:12.872Z,22.14
2023-04-18T03:21:12.901Z,22.14
2023-04-18T03:22:12.972Z,22.13
2023-04-18T03:23:13.050Z,22.17
2023-04-18T03:24:13.489Z,22.17
2023-04-18T03:25:13.171Z,22.14
2023-04-18T03:26:13.247Z,22.15
2023-04-18T03:27:13.290Z,22.15
2023-04-18T03:28:13.356Z,22.15
2023-04-18T03:29:13.457Z,22.17
2023-04-18T03:30:13.483Z,22.15
2023-04-18T03:31:13.590Z,22.17
2023-04-18T03:32:13.612Z,22.15
2023-04-18T03:33:13.685Z,22.18
2023-04-18T03:34:13.935Z,22.17
2023-04-18T03:35:13.841Z,22.15
2023-04-18T03:36:14.443Z,22.17
2023-04-18T03:37:13.963Z,22.18
2023-04-18T03:38:14.003Z,22.18
2023-04-18T03:39:14.077Z,22.14
2023-04-18T03:40:14.151Z,22.18
2023-04-18T03:41:14.400Z,22.20
2023-04-18T03:42:14.277Z,22.17
2023-04-18T03:43:14.344Z,22.17
2023-04-18T03:44:14.742Z,22.17
2023-04-18T03:45:14.478Z,22.18
2023-04-18T03:46:14.597Z,22.15
2023-04-18T03:47:14.637Z,22.17
2023-04-18T03:48:14.713Z,22.17
2023-04-18T03:49:14.776Z,22.15
2023-04-18T03:50:14.843Z,22.18
2023-04-18T03:51:14.976Z,22.17
2023-04-18T03:52:14.969Z,22.15
2023-04-18T03:53:15.059Z,22.18
2023-04-18T03:54:15.317Z,22.15
2023-04-18T03:55:15.178Z,22.17
2023-04-18T03:56:15.257Z,22.15
2023-04-18T03:57:15.323Z,22.17
2023-04-18T03:58:15.480Z,22.17
2023-04-18T03:59:15.601Z,22.17
2023-04-18T04:00:15.521Z,22.18
2023-04-18T04:01:15.657Z,22.18
2023-04-18T04:02:15.711Z,22.17
2023-04-18T04:03:15.769Z,22.15
2023-04-18T04:04:16.739Z,22.17
2023-04-18T04:05:15.931Z,22.20
2023-04-18T04:06:15.930Z,22.18
2023-04-18T04:07:16.004Z,22.20
2023-04-18T04:08:16.103Z,22.18
2023-04-18T04:09:16.123Z,22.18
2023-04-18T04:10:16.193Z,22.20
2023-04-18T04:11:16.260Z,22.20
2023-04-18T04:12:16.318Z,22.18
2023-04-18T04:13:16.393Z,22.18
2023-04-18T04:14:16.513Z,22.20
2023-04-18T04:15:16.539Z,22.18
2023-04-18T04:16:16.587Z,22.18
2023-04-18T04:17:16.651Z,22.18
2023-04-18T04:18:16.708Z,22.20
2023-04-18T04:19:16.769Z,22.20
2023-04-18T04:20:16.840Z,22.18
2023-04-18T04:21:17.597Z,22.21
2023-04-18T04:22:16.956Z,22.21
2023-04-18T04:23:17.083Z,22.20
2023-04-18T04:24:17.076Z,22.18
2023-04-18T04:25:17.136Z,22.21
2023-04-18T04:26:17.471Z,22.18
2023-04-18T04:27:17.260Z,22.21
2023-04-18T04:28:17.318Z,22.18
2023-04-18T04:29:17.374Z,22.20
2023-04-18T04:30:17.441Z,22.20
2023-04-18T04:31:17.532Z,22.20
2023-04-18T04:32:17.565Z,22.21
2023-04-18T04:33:17.644Z,22.21
2023-04-18T04:34:17.693Z,22.20
2023-04-18T04:35:17.758Z,22.20
2023-04-18T04:36:19.041Z,22.20
2023-04-18T04:37:17.862Z,22.21
2023-04-18T04:38:17.926Z,22.21
2023-04-18T04:39:17.989Z,22.20
2023-04-18T04:40:18.059Z,22.21
2023-04-18T04:41:18.133Z,22.18
2023-04-18T04:42:18.181Z,22.21
2023-04-18T04:43:18.238Z,22.21
2023-04-18T04:44:18.362Z,22.20
2023-04-18T04:45:18.385Z,22.21
2023-04-18T04:46:18.534Z,22.21
2023-04-18T04:47:18.498Z,22.22
2023-04-18T04:48:18.566Z,22.24
2023-04-18T04:49:18.632Z,22.22
2023-04-18T04:50:18.715Z,22.20
2023-04-18T04:51:18.766Z,22.20
2023-04-18T04:52:18.829Z,22.20
2023-04-18T04:53:18.889Z,22.22
2023-04-18T04:54:18.952Z,22.24
2023-04-18T04:55:19.084Z,22.21
2023-04-18T04:56:19.082Z,22.22
2023-04-18T04:57:19.154Z,22.21
2023-04-18T04:58:19.235Z,22.22
2023-04-18T04:59:19.284Z,22.22
2023-04-18T05:00:19.344Z,22.24
2023-04-18T05:01:19.483Z,22.21
2023-04-18T05:02:19.537Z,22.21
2023-04-18T05:03:19.695Z,22.24
2023-04-18T05:04:20.165Z,22.22
2023-04-18T05:05:19.657Z,22.24
2023-04-18T05:06:19.750Z,22.22
2023-04-18T05:07:19.789Z,22.22
2023-04-18T05:08:19.850Z,22.21
2023-04-18T05:09:19.920Z,22.24
2023-04-18T05:10:19.967Z,22.21
2023-04-18T05:11:20.049Z,22.25
2023-04-18T05:12:20.098Z,22.24
2023-04-18T05:13:20.174Z,22.22
2023-04-18T05:14:20.226Z,22.24
2023-04-18T05:15:20.284Z,22.24
2023-04-18T05:16:20.356Z,22.22
2023-04-18T05:17:20.394Z,22.24
2023-04-18T05:18:20.457Z,22.22
2023-04-18T05:19:20.519Z,22.22
2023-04-18T05:20:20.577Z,22.25
2023-04-18T05:21:20.631Z,22.25
2023-04-18T05:22:20.680Z,22.22
2023-04-18T05:23:20.766Z,22.24
2023-04-18T05:24:20.814Z,22.25
2023-04-18T05:25:20.867Z,22.25
2023-04-18T05:26:20.944Z,22.28
2023-04-18T05:27:20.971Z,22.31
2023-04-18T05:28:21.000Z,22.37
2023-04-18T05:29:21.033Z,22.38
2023-04-18T05:30:21.103Z,22.44
2023-04-18T05:31:22.031Z,22.51
2023-04-18T05:32:21.171Z,22.56
2023-04-18T05:33:21.133Z,22.59
2023-04-18T05:34:21.150Z,22.63
2023-04-18T05:35:21.188Z,22.69
2023-04-18T05:36:21.190Z,22.73
2023-04-18T05:37:21.206Z,22.73
2023-04-18T05:38:21.220Z,22.79
2023-04-18T05:39:21.220Z,22.82
2023-04-18T05:40:21.249Z,22.85
2023-04-18T05:41:21.248Z,22.87
2023-04-18T05:42:21.273Z,22.89
2023-04-18T05:43:21.274Z,22.93
2023-04-18T05:44:21.567Z,22.93
2023-04-18T05:45:21.307Z,22.93
2023-04-18T05:46:21.360Z,22.97
2023-04-18T05:47:21.370Z,23.00
2023-04-18T05:48:21.364Z,22.97
2023-04-18T05:49:21.368Z,23.03
2023-04-18T05:50:21.499Z,23.04
2023-04-18T05:51:21.476Z,23.07
2023-04-18T05:52:21.521Z,23.08
2023-04-18T05:53:22.498Z,23.11
2023-04-18T05:54:21.653Z,23.11
2023-04-18T05:55:21.772Z,23.14
2023-04-18T05:56:21.778Z,23.14
2023-04-18T05:57:21.847Z,23.18
2023-04-18T05:58:21.933Z,23.21
2023-04-18T05:59:21.964Z,23.19
2023-04-18T06:00:22.048Z,23.21
2023-04-18T06:01:22.091Z,23.25
2023-04-18T06:02:22.273Z,23.25
2023-04-18T06:03:22.435Z,23.25
2023-04-18T06:04:22.395Z,23.29
2023-04-18T06:05:22.817Z,23.29
2023-04-18T06:06:22.403Z,23.29
2023-04-18T06:07:22.523Z,23.32
2023-04-18T06:08:22.524Z,23.31
2023-04-18T06:09:22.584Z,23.32
2023-04-18T06:10:22.649Z,23.35
2023-04-18T06:11:22.728Z,23.37
2023-04-18T06:12:22.750Z,23.38
2023-04-18T06:13:22.778Z,23.39
2023-04-18T06:14:23.509Z,23.41
2023-04-18T06:15:22.868Z,23.42
2023-04-18T06:16:22.924Z,23.44
2023-04-18T06:17:23.010Z,23.42
2023-04-18T06:18:22.991Z,23.44
2023-04-18T06:19:23.013Z,23.45
2023-04-18T06:20:23.049Z,23.49
2023-04-18T06:21:24.008Z,23.49
2023-04-18T06:22:23.120Z,23.50
2023-04-18T06:23:23.162Z,23.46
2023-04-18T06:24:23.192Z,23.46
2023-04-18T06:25:23.231Z,23.45
2023-04-18T06:26:23.275Z,23.45
2023-04-18T06:27:31.044Z,23.45
2023-04-18T06:28:24.314Z,23.42
2023-04-18T06:29:23.316Z,23.44
2023-04-18T06:30:23.353Z,23.39
2023-04-18T06:31:23.353Z,23.41
2023-04-18T06:32:25.498Z,23.39
2023-04-18T06:33:23.941Z,23.38
2023-04-18T06:34:23.298Z,23.35
2023-04-18T06:35:24.138Z,23.37
2023-04-18T06:36:23.507Z,23.35
2023-04-18T06:37:23.589Z,23.33
2023-04-18T06:38:24.017Z,23.33
2023-04-18T06:39:23.722Z,23.31
2023-04-18T06:40:23.728Z,23.29
2023-04-18T06:41:23.789Z,23.29
2023-04-18T06:42:23.866Z,23.28
2023-04-18T06:43:23.909Z,23.25
2023-04-18T06:44:23.973Z,23.24
2023-04-18T06:45:24.043Z,23.25
2023-04-18T06:46:24.153Z,23.25
2023-04-18T06:47:25.162Z,23.24
2023-04-18T06:48:24.093Z,23.24
2023-04-18T06:49:26.415Z,23.21
2023-04-18T06:50:24.330Z,23.22
2023-04-18T06:51:24.385Z,23.18
2023-04-18T06:52:24.438Z,23.19
2023-04-18T06:53:24.512Z,23.19
2023-04-18T06:54:24.596Z,23.17
2023-04-18T06:55:24.742Z,23.17
2023-04-18T06:56:24.705Z,23.15
2023-04-18T06:57:24.769Z,23.15
2023-04-18T06:58:24.836Z,23.15
2023-04-18T06:59:24.911Z,23.14
2023-04-18T07:00:24.974Z,23.13
2023-04-18T07:01:25.071Z,23.11
2023-04-18T07:02:25.179Z,23.11
2023-04-18T07:03:25.261Z,23.13
2023-04-18T07:04:25.403Z,23.13
2023-04-18T07:05:25.269Z,23.14
2023-04-18T07:06:25.319Z,23.14
2023-04-18T07:07:25.362Z,23.11
2023-04-18T07:08:25.443Z,23.15
2023-04-18T07:09:25.487Z,23.13
2023-04-18T07:10:26.628Z,23.13
2023-04-18T07:11:25.603Z,23.11
2023-04-18T07:12:25.623Z,23.11
2023-04-18T07:13:25.732Z,23.11
2023-04-18T07:14:25.730Z,23.08
2023-04-18T07:15:25.777Z,23.11
2023-04-18T07:16:25.884Z,23.11
2023-04-18T07:17:25.959Z,23.11
2023-04-18T07:18:36.719Z,23.11
2023-04-18T07:19:27.054Z,23.08
2023-04-18T07:20:26.060Z,23.10
2023-04-18T07:21:26.448Z,23.10
2023-04-18T07:22:25.958Z,23.13
2023-04-18T07:23:25.963Z,23.17
2023-04-18T07:24:25.963Z,23.19
2023-04-18T07:25:25.963Z,23.22
2023-04-18T07:26:26.602Z,23.25
2023-04-18T07:27:25.977Z,23.29
2023-04-18T07:28:26.948Z,23.31
2023-04-18T07:29:27.455Z,23.33
2023-04-18T07:30:26.097Z,23.35
2023-04-18T07:31:26.149Z,23.39
2023-04-18T07:32:26.235Z,23.39
2023-04-18T07:33:26.273Z,23.41
2023-04-18T07:34:26.308Z,23.46
2023-04-18T07:35:26.250Z,23.45
2023-04-18T07:36:26.302Z,23.49
2023-04-18T07:37:26.202Z,23.49
2023-04-18T07:38:26.208Z,23.52
2023-04-18T07:39:26.194Z,23.53
2023-04-18T07:40:26.229Z,23.55
2023-04-18T07:41:26.245Z,23.56
2023-04-18T07:42:26.271Z,23.57
2023-04-18T07:43:26.168Z,23.59
2023-04-18T07:44:26.161Z,23.59
2023-04-18T07:45:26.163Z,23.59
2023-04-18T07:46:26.210Z,23.62
2023-04-18T07:47:27.518Z,23.65
2023-04-18T07:48:26.174Z,23.65
2023-04-18T07:49:26.133Z,23.67
2023-04-18T07:50:26.141Z,23.67
2023-04-18T07:51:26.119Z,23.70
2023-04-18T07:52:26.122Z,23.70
2023-04-18T07:53:26.108Z,23.70
2023-04-18T07:54:26.101Z,23.72
2023-04-18T07:55:26.155Z,23.73
2023-04-18T07:56:26.097Z,23.73
2023-04-18T07:57:26.108Z,23.74
2023-04-18T07:58:26.217Z,23.77
2023-04-18T07:59:26.091Z,23.76
2023-04-18T08:00:26.296Z,23.79
2023-04-18T08:01:26.070Z,23.77
2023-04-18T08:02:26.246Z,23.79
2023-04-18T08:03:26.229Z,23.80
2023-04-18T08:05:26.136Z,23.83
2023-04-18T08:06:26.973Z,23.83
2023-04-18T08:07:26.001Z,23.85
2023-04-18T08:08:26.078Z,23.85
2023-04-18T08:09:26.001Z,23.84
2023-04-18T08:10:25.981Z,23.85
2023-04-18T08:11:25.986Z,23.85
2023-04-18T08:12:26.032Z,23.88
2023-04-18T08:13:25.951Z,23.91
2023-04-18T08:14:25.964Z,23.90
2023-04-18T08:15:25.901Z,23.91
2023-04-18T08:16:25.896Z,23.93
2023-04-18T08:17:25.899Z,23.93
2023-04-18T08:18:25.857Z,23.90
2023-04-18T08:19:25.849Z,23.88
2023-04-18T08:20:25.882Z,23.79
2023-04-18T08:21:25.827Z,23.74
2023-04-18T08:22:25.805Z,23.66
2023-04-18T08:23:25.801Z,23.62
2023-04-18T08:24:25.796Z,23.59
2023-04-18T08:25:25.802Z,23.53
2023-04-18T08:26:25.882Z,23.53
2023-04-18T08:27:25.769Z,23.46
2023-04-18T08:28:26.585Z,23.49
2023-04-18T08:29:25.739Z,23.53
2023-04-18T08:30:26.691Z,23.57
2023-04-18T08:31:25.770Z,23.60
2023-04-18T08:32:25.781Z,23.63
2023-04-18T08:33:25.694Z,23.63
2023-04-18T08:34:25.684Z,23.66
2023-04-18T08:35:25.673Z,23.67
2023-04-18T08:36:25.660Z,23.70
2023-04-18T08:37:25.683Z,23.72
2023-04-18T08:38:25.641Z,23.73
2023-04-18T08:39:26.057Z,23.74
2023-04-18T08:40:25.654Z,23.79
2023-04-18T08:41:25.604Z,23.80
2023-04-18T08:42:25.596Z,23.84
2023-04-18T08:43:25.575Z,23.81
2023-04-18T08:44:25.558Z,23.87
2023-04-18T08:45:25.555Z,23.88
2023-04-18T08:46:25.577Z,23.91
2023-04-18T08:47:25.551Z,23.88
2023-04-18T08:48:25.499Z,23.93
2023-04-18T08:49:25.562Z,23.97
2023-04-18T08:50:25.501Z,24.04
2023-04-18T08:51:25.457Z,24.08
2023-04-18T08:52:25.429Z,24.11
2023-04-18T08:53:25.414Z,24.18
2023-04-18T08:54:27.140Z,24.19
2023-04-18T08:55:25.389Z,24.24
2023-04-18T08:56:25.355Z,24.25
2023-04-18T08:57:25.339Z,24.25
2023-04-18T08:58:25.322Z,24.24
2023-04-18T08:59:25.315Z,24.25
2023-04-18T09:00:25.423Z,24.26
2023-04-18T09:01:25.376Z,24.34
2023-04-18T09:02:25.564Z,24.38
2023-04-18T09:03:25.361Z,24.40
2023-04-18T09:04:25.378Z,24.46
2023-04-18T09:05:25.309Z,24.48
2023-04-18T09:06:26.081Z,24.52
2023-04-18T09:07:25.326Z,24.55
2023-04-18T09:08:25.277Z,24.58
2023-04-18T09:09:25.276Z,24.62
2023-04-18T09:10:25.315Z,24.64
2023-04-18T09:11:25.268Z,24.64
2023-04-18T09:12:25.269Z,24.60
2023-04-18T09:13:25.261Z,24.60
2023-04-18T09:14:25.288Z,24.59
2023-04-18T09:15:25.315Z,24.58
2023-04-18T09:16:25.429Z,24.55
2023-04-18T09:17:25.395Z,24.56
2023-04-18T09:18:25.647Z,24.53
2023-04-18T09:19:25.401Z,24.42
2023-04-18T09:20:25.460Z,24.36
2023-04-18T09:21:25.540Z,24.26
2023-04-18T09:22:25.589Z,24.22
2023-04-18T09:23:25.628Z,24.18
2023-04-18T09:24:25.654Z,24.19
2023-04-18T09:25:26.491Z,24.18
2023-04-18T09:26:25.752Z,24.15
2023-04-18T09:27:25.804Z,24.17
2023-04-18T09:28:26.094Z,24.17
2023-04-18T09:29:25.926Z,24.15
2023-04-18T09:30:25.983Z,24.18
2023-04-18T09:31:26.121Z,24.15
2023-04-18T09:32:26.148Z,24.17
2023-04-18T09:33:26.162Z,24.18
2023-04-18T09:34:26.255Z,24.17
2023-04-18T09:35:26.268Z,24.17
2023-04-18T09:36:26.348Z,24.18
2023-04-18T09:37:26.368Z,24.21
2023-04-18T09:38:26.603Z,24.21
2023-04-18T09:39:26.470Z,24.25
2023-04-18T09:40:26.515Z,24.25
2023-04-18T09:41:26.536Z,24.24
2023-04-18T09:42:28.795Z,24.26
2023-04-18T09:43:26.630Z,24.25
2023-04-18T09:44:26.667Z,24.29
2023-04-18T09:45:26.710Z,24.26
2023-04-18T09:46:26.749Z,24.29
2023-04-18T09:47:26.801Z,24.31
2023-04-18T09:48:26.790Z,24.29
2023-04-18T09:49:26.839Z,24.32
2023-04-18T09:50:26.872Z,24.34
2023-04-18T09:51:26.912Z,24.34
2023-04-18T09:52:27.593Z,24.35
2023-04-18T09:53:26.978Z,24.34
2023-04-18T09:54:27.000Z,24.38
2023-04-18T09:55:27.031Z,24.35
2023-04-18T09:56:27.049Z,24.38
2023-04-18T09:57:28.093Z,24.38
2023-04-18T09:58:27.123Z,24.38
2023-04-18T09:59:27.153Z,24.39
2023-04-18T10:00:27.184Z,24.40
2023-04-18T10:01:28.192Z,24.40
2023-04-18T10:02:27.241Z,24.42
2023-04-18T10:03:27.219Z,24.40
2023-04-18T10:04:27.221Z,24.43
2023-04-18T10:05:27.214Z,24.46
2023-04-18T10:06:27.099Z,24.49
2023-04-18T10:07:27.096Z,24.46
2023-04-18T10:08:27.085Z,24.49
2023-04-18T10:09:27.067Z,24.48
2023-04-18T10:10:27.086Z,24.48
2023-04-18T10:11:27.048Z,24.49
2023-04-18T10:12:27.045Z,24.49
2023-04-18T10:13:27.012Z,24.50
2023-04-18T10:14:28.448Z,24.50
2023-04-18T10:15:27.166Z,24.52
2023-04-18T10:16:27.026Z,24.48
2023-04-18T10:17:28.749Z,24.40
2023-04-18T10:18:27.040Z,24.48
2023-04-18T10:19:28.009Z,24.49
2023-04-18T10:20:26.960Z,24.43
2023-04-18T10:21:27.594Z,24.42
2023-04-18T10:22:27.509Z,24.43
2023-04-18T10:23:28.071Z,24.42
2023-04-18T10:24:26.918Z,24.42
2023-04-18T10:25:26.909Z,24.42
2023-04-18T10:26:26.900Z,24.40
2023-04-18T10:27:26.883Z,24.43
2023-04-18T10:28:26.864Z,24.43
2023-04-18T10:29:26.850Z,24.40
2023-04-18T10:30:26.849Z,24.43
2023-04-18T10:31:27.026Z,24.39
2023-04-18T10:32:26.931Z,24.39
2023-04-18T10:33:31.129Z,24.38
2023-04-18T10:34:28.003Z,24.40
2023-04-18T10:35:26.979Z,24.39
2023-04-18T10:36:26.885Z,24.38
2023-04-18T10:37:26.870Z,24.35
2023-04-18T10:38:26.856Z,24.36
2023-04-18T10:39:26.892Z,24.36
2023-04-18T10:40:26.811Z,24.36
2023-04-18T10:41:26.825Z,24.36
2023-04-18T10:42:26.770Z,24.38
2023-04-18T10:43:26.828Z,24.38
2023-04-18T10:44:26.796Z,24.38
2023-04-18T10:45:26.821Z,24.40
2023-04-18T10:46:31.624Z,24.39
2023-04-18T10:47:27.913Z,24.39
2023-04-18T10:48:26.814Z,24.40
2023-04-18T10:49:28.416Z,24.42
2023-04-18T10:50:26.788Z,24.42
2023-04-18T10:51:26.775Z,24.40
2023-04-18T10:52:26.764Z,24.42
2023-04-18T10:53:26.763Z,24.42
2023-04-18T10:54:26.766Z,24.42
2023-04-18T10:55:27.110Z,24.44
2023-04-18T10:56:27.103Z,24.44
2023-04-18T10:57:26.695Z,24.44
2023-04-18T10:58:26.684Z,24.46
2023-04-18T10:59:26.692Z,24.48
2023-04-18T11:00:26.681Z,24.48
2023-04-18T11:01:27.481Z,24.50
2023-04-18T11:02:26.895Z,24.53
2023-04-18T11:03:26.925Z,24.52
2023-04-18T11:04:26.925Z,24.53
2023-04-18T11:05:26.856Z,24.56
2023-04-18T11:06:26.856Z,24.58
2023-04-18T11:07:28.405Z,24.55
2023-04-18T11:08:26.836Z,24.56
2023-04-18T11:09:26.828Z,24.58
2023-04-18T11:10:26.942Z,24.56
2023-04-18T11:11:26.783Z,24.55
2023-04-18T11:12:26.760Z,24.55
2023-04-18T11:13:26.732Z,24.55
2023-04-18T11:14:26.717Z,24.53
2023-04-18T11:15:28.015Z,24.55
2023-04-18T11:16:26.761Z,24.53
2023-04-18T11:17:27.634Z,24.50
2023-04-18T11:18:26.784Z,24.48
2023-04-18T11:19:26.800Z,24.49
2023-04-18T11:20:26.921Z,24.49
2023-04-18T11:21:28.074Z,24.44
2023-04-18T11:22:26.899Z,24.44
2023-04-18T11:23:26.997Z,24.44
2023-04-18T11:24:26.964Z,24.42
2023-04-18T11:25:27.048Z,24.40
2023-04-18T11:26:27.166Z,24.40
2023-04-18T11:27:27.069Z,24.38
2023-04-18T11:28:27.104Z,24.39
2023-04-18T11:29:27.616Z,24.38
2023-04-18T11:30:27.198Z,24.35
2023-04-18T11:31:27.244Z,24.36
2023-04-18T11:32:27.811Z,24.35
2023-04-18T11:33:27.311Z,24.35
2023-04-18T11:34:27.357Z,24.31
2023-04-18T11:35:27.391Z,24.34
2023-04-18T11:36:27.436Z,24.34
2023-04-18T11:37:27.493Z,24.31
2023-04-18T11:38:27.516Z,24.31
2023-04-18T11:39:27.576Z,24.29
2023-04-18T11:40:27.617Z,24.32
2023-04-18T11:41:27.666Z,24.29
2023-04-18T11:42:27.731Z,24.29
2023-04-18T11:43:27.745Z,24.29
2023-04-18T11:44:27.794Z,24.29
2023-04-18T11:45:27.833Z,24.26
2023-04-18T11:46:27.937Z,24.26
2023-04-18T11:47:27.945Z,24.26
2023-04-18T11:48:27.971Z,24.22
2023-04-18T11:49:28.088Z,24.25
2023-04-18T11:50:28.134Z,24.26
2023-04-18T11:51:28.104Z,24.29
2023-04-18T11:52:28.170Z,24.29
2023-04-18T11:53:28.203Z,24.28
2023-04-18T11:54:28.325Z,24.26
2023-04-18T11:55:28.313Z,24.28
2023-04-18T11:56:28.328Z,24.34
2023-04-18T11:57:28.371Z,24.31
2023-04-18T11:58:28.441Z,24.32
2023-04-18T11:59:28.444Z,24.34
2023-04-18T12:00:28.492Z,24.35
2023-04-18T12:01:28.527Z,24.35
2023-04-18T12:02:28.662Z,24.35
2023-04-18T12:03:28.710Z,24.38
2023-04-18T12:04:28.937Z,24.40
2023-04-18T12:05:28.927Z,24.39
2023-04-18T12:06:28.760Z,24.42
2023-04-18T12:07:29.130Z,24.43
2023-04-18T12:08:28.753Z,24.43
2023-04-18T12:09:28.775Z,24.44
2023-04-18T12:10:28.809Z,24.48
2023-04-18T12:11:28.821Z,24.50
2023-04-18T12:12:28.841Z,24.49
2023-04-18T12:13:28.866Z,24.50
2023-04-18T12:14:28.912Z,24.52
2023-04-18T12:15:28.871Z,24.53
2023-04-18T12:16:28.943Z,24.56
2023-04-18T12:17:28.920Z,24.56
2023-04-18T12:18:28.908Z,24.58
2023-04-18T12:19:28.946Z,24.60
2023-04-18T12:20:28.928Z,24.60
2023-04-18T12:21:28.923Z,24.60
2023-04-18T12:22:28.947Z,24.60
2023-04-18T12:23:28.924Z,24.62
2023-04-18T12:24:28.991Z,24.63
2023-04-18T12:25:28.931Z,24.64
2023-04-18T12:26:28.932Z,24.64
2023-04-18T12:27:28.996Z,24.64
2023-04-18T12:28:28.926Z,24.64
2023-04-18T12:29:28.919Z,24.66
2023-04-18T12:30:28.933Z,24.64
2023-04-18T12:31:28.991Z,24.67
2023-04-18T12:32:28.939Z,24.69
2023-04-18T12:33:28.915Z,24.70
2023-04-18T12:34:28.899Z,24.70
2023-04-18T12:35:28.932Z,24.71
2023-04-18T12:36:28.896Z,24.71
2023-04-18T12:37:28.889Z,24.73
2023-04-18T12:38:28.884Z,24.74
2023-04-18T12:39:28.872Z,24.76
2023-04-18T12:40:28.871Z,24.76
2023-04-18T12:41:28.873Z,24.78
2023-04-18T12:42:28.862Z,24.78
2023-04-18T12:43:28.861Z,24.77
2023-04-18T12:44:28.864Z,24.78
2023-04-18T12:45:28.845Z,24.80
2023-04-18T12:46:29.026Z,24.83
2023-04-18T12:47:28.861Z,24.83
2023-04-18T12:48:28.831Z,24.83
2023-04-18T12:49:28.849Z,24.83
2023-04-18T12:50:28.852Z,24.85
2023-04-18T12:51:28.807Z,24.87
2023-04-18T12:52:28.801Z,24.87
2023-04-18T12:53:28.794Z,24.87
2023-04-18T12:54:28.763Z,24.88